sensor_id;sensor_type;location;lat;lon;timestamp;P1;durP1;ratioP1;P2;durP2;ratioP2
21202;SDS011;10759;51.982;9.232;2022-10-16T00:01:03;6.82;;;1.90;;
21202;SDS011;10759;51.982;9.232;2022-10-16T00:03:33;2.90;;;1.58;;
21202;SDS011;10759;51.982;9.232;2022-10-16T00:06:01;2.90;;;1.58;;
21202;SDS011;10759;51.982;9.232;2022-10-16T00:08:30;2.00;;;1.65;;
21202;SDS011;10759;51.982;9.232;2022-10-16T00:10:59;3.30;;;1.90;;
21202;SDS011;10759;51.982;9.232;2022-10-16T00:13:29;2.75;;;1.50;;
21202;SDS011;10759;51.982;9.232;2022-10-16T00:15:59;1.70;;;1.58;;
21202;SDS011;10759;51.982;9.232;2022-10-16T00:21:01;1.98;;;1.85;;
21202;SDS011;10759;51.982;9.232;2022-10-16T00:23:30;2.38;;;2.17;;
21202;SDS011;10759;51.982;9.232;2022-10-16T00:25:59;3.58;;;1.90;;
21202;SDS011;10759;51.982;9.232;2022-10-16T00:31:02;5.15;;;2.00;;
21202;SDS011;10759;51.982;9.232;2022-10-16T00:33:32;1.65;;;1.55;;
21202;SDS011;10759;51.982;9.232;2022-10-16T00:36:00;3.50;;;1.95;;
21202;SDS011;10759;51.982;9.232;2022-10-16T00:38:29;2.33;;;2.22;;
21202;SDS011;10759;51.982;9.232;2022-10-16T00:40:58;2.25;;;2.00;;
21202;SDS011;10759;51.982;9.232;2022-10-16T00:43:34;3.38;;;2.38;;
21202;SDS011;10759;51.982;9.232;2022-10-16T00:46:08;2.35;;;2.15;;
21202;SDS011;10759;51.982;9.232;2022-10-16T00:48:41;3.67;;;2.00;;
21202;SDS011;10759;51.982;9.232;2022-10-16T00:51:12;3.20;;;2.55;;
21202;SDS011;10759;51.982;9.232;2022-10-16T00:53:41;3.00;;;2.03;;
21202;SDS011;10759;51.982;9.232;2022-10-16T00:56:09;2.13;;;1.70;;
21202;SDS011;10759;51.982;9.232;2022-10-16T00:58:38;4.13;;;2.00;;
21202;SDS011;10759;51.982;9.232;2022-10-16T01:01:07;3.33;;;2.20;;
21202;SDS011;10759;51.982;9.232;2022-10-16T01:03:36;2.65;;;2.28;;
21202;SDS011;10759;51.982;9.232;2022-10-16T01:06:07;2.85;;;2.13;;
21202;SDS011;10759;51.982;9.232;2022-10-16T01:08:49;2.53;;;2.15;;
21202;SDS011;10759;51.982;9.232;2022-10-16T01:11:27;4.10;;;2.90;;
21202;SDS011;10759;51.982;9.232;2022-10-16T01:14:02;2.42;;;2.22;;
21202;SDS011;10759;51.982;9.232;2022-10-16T01:16:38;2.88;;;2.42;;
21202;SDS011;10759;51.982;9.232;2022-10-16T01:19:12;3.35;;;1.98;;
21202;SDS011;10759;51.982;9.232;2022-10-16T01:21:44;2.50;;;2.30;;
21202;SDS011;10759;51.982;9.232;2022-10-16T01:24:17;2.67;;;2.55;;
21202;SDS011;10759;51.982;9.232;2022-10-16T01:27:07;2.67;;;2.47;;
21202;SDS011;10759;51.982;9.232;2022-10-16T01:29:38;2.28;;;2.08;;
21202;SDS011;10759;51.982;9.232;2022-10-16T01:32:11;5.25;;;3.75;;
21202;SDS011;10759;51.982;9.232;2022-10-16T01:34:46;3.65;;;2.40;;
21202;SDS011;10759;51.982;9.232;2022-10-16T01:37:20;4.53;;;2.83;;
21202;SDS011;10759;51.982;9.232;2022-10-16T01:39:55;2.13;;;1.90;;
21202;SDS011;10759;51.982;9.232;2022-10-16T01:42:30;3.33;;;2.33;;
21202;SDS011;10759;51.982;9.232;2022-10-16T01:45:02;2.50;;;2.30;;
21202;SDS011;10759;51.982;9.232;2022-10-16T01:47:34;6.72;;;2.58;;
21202;SDS011;10759;51.982;9.232;2022-10-16T01:50:03;5.73;;;3.33;;
21202;SDS011;10759;51.982;9.232;2022-10-16T01:52:34;3.03;;;2.78;;
21202;SDS011;10759;51.982;9.232;2022-10-16T01:55:06;4.20;;;2.97;;
21202;SDS011;10759;51.982;9.232;2022-10-16T01:57:39;4.47;;;3.55;;
21202;SDS011;10759;51.982;9.232;2022-10-16T02:00:12;3.60;;;3.22;;
21202;SDS011;10759;51.982;9.232;2022-10-16T02:02:44;4.05;;;3.28;;
21202;SDS011;10759;51.982;9.232;2022-10-16T02:05:16;7.53;;;3.35;;
21202;SDS011;10759;51.982;9.232;2022-10-16T02:07:48;5.00;;;3.10;;
21202;SDS011;10759;51.982;9.232;2022-10-16T02:10:17;4.00;;;2.65;;
21202;SDS011;10759;51.982;9.232;2022-10-16T02:12:48;5.45;;;3.38;;
21202;SDS011;10759;51.982;9.232;2022-10-16T02:15:21;4.82;;;2.92;;
21202;SDS011;10759;51.982;9.232;2022-10-16T02:17:49;5.68;;;3.10;;
21202;SDS011;10759;51.982;9.232;2022-10-16T02:20:17;6.85;;;3.50;;
21202;SDS011;10759;51.982;9.232;2022-10-16T02:22:52;4.40;;;3.38;;
21202;SDS011;10759;51.982;9.232;2022-10-16T02:25:24;7.65;;;3.30;;
21202;SDS011;10759;51.982;9.232;2022-10-16T02:28:00;5.90;;;3.25;;
21202;SDS011;10759;51.982;9.232;2022-10-16T02:30:32;2.95;;;2.75;;
21202;SDS011;10759;51.982;9.232;2022-10-16T02:33:04;4.47;;;3.22;;
21202;SDS011;10759;51.982;9.232;2022-10-16T02:35:35;5.28;;;2.72;;
21202;SDS011;10759;51.982;9.232;2022-10-16T02:38:05;6.05;;;2.92;;
21202;SDS011;10759;51.982;9.232;2022-10-16T02:40:36;5.22;;;3.20;;
21202;SDS011;10759;51.982;9.232;2022-10-16T02:43:06;6.13;;;3.15;;
21202;SDS011;10759;51.982;9.232;2022-10-16T02:45:34;6.88;;;3.22;;
21202;SDS011;10759;51.982;9.232;2022-10-16T02:48:03;5.05;;;3.35;;
21202;SDS011;10759;51.982;9.232;2022-10-16T02:50:31;6.00;;;3.20;;
21202;SDS011;10759;51.982;9.232;2022-10-16T02:52:59;3.20;;;2.90;;
21202;SDS011;10759;51.982;9.232;2022-10-16T02:55:27;2.47;;;2.35;;
21202;SDS011;10759;51.982;9.232;2022-10-16T02:57:55;5.40;;;3.17;;
21202;SDS011;10759;51.982;9.232;2022-10-16T03:00:24;7.65;;;2.80;;
21202;SDS011;10759;51.982;9.232;2022-10-16T03:02:53;4.97;;;2.95;;
21202;SDS011;10759;51.982;9.232;2022-10-16T03:05:21;2.83;;;2.63;;
21202;SDS011;10759;51.982;9.232;2022-10-16T03:07:49;2.92;;;2.72;;
21202;SDS011;10759;51.982;9.232;2022-10-16T03:10:17;3.90;;;3.17;;
21202;SDS011;10759;51.982;9.232;2022-10-16T03:12:44;6.32;;;3.22;;
21202;SDS011;10759;51.982;9.232;2022-10-16T03:15:12;3.40;;;3.10;;
21202;SDS011;10759;51.982;9.232;2022-10-16T03:17:42;8.68;;;3.22;;
21202;SDS011;10759;51.982;9.232;2022-10-16T03:20:10;3.60;;;3.28;;
21202;SDS011;10759;51.982;9.232;2022-10-16T03:22:38;3.35;;;3.10;;
21202;SDS011;10759;51.982;9.232;2022-10-16T03:25:06;4.10;;;3.67;;
21202;SDS011;10759;51.982;9.232;2022-10-16T03:27:35;3.70;;;3.25;;
21202;SDS011;10759;51.982;9.232;2022-10-16T03:30:03;8.45;;;4.07;;
21202;SDS011;10759;51.982;9.232;2022-10-16T03:32:31;4.28;;;3.65;;
21202;SDS011;10759;51.982;9.232;2022-10-16T03:35:04;5.47;;;3.95;;
21202;SDS011;10759;51.982;9.232;2022-10-16T03:37:32;7.50;;;4.07;;
21202;SDS011;10759;51.982;9.232;2022-10-16T03:40:00;6.47;;;3.70;;
21202;SDS011;10759;51.982;9.232;2022-10-16T03:42:28;4.75;;;3.40;;
21202;SDS011;10759;51.982;9.232;2022-10-16T03:44:56;5.95;;;3.97;;
21202;SDS011;10759;51.982;9.232;2022-10-16T03:47:24;8.20;;;4.00;;
21202;SDS011;10759;51.982;9.232;2022-10-16T03:49:52;7.07;;;4.43;;
21202;SDS011;10759;51.982;9.232;2022-10-16T03:52:22;4.68;;;3.47;;
21202;SDS011;10759;51.982;9.232;2022-10-16T03:54:50;5.43;;;4.03;;
21202;SDS011;10759;51.982;9.232;2022-10-16T03:57:18;6.22;;;3.38;;
21202;SDS011;10759;51.982;9.232;2022-10-16T03:59:46;4.93;;;3.67;;
21202;SDS011;10759;51.982;9.232;2022-10-16T04:02:14;5.05;;;3.80;;
21202;SDS011;10759;51.982;9.232;2022-10-16T04:04:42;5.03;;;4.65;;
21202;SDS011;10759;51.982;9.232;2022-10-16T04:07:10;3.75;;;3.45;;
21202;SDS011;10759;51.982;9.232;2022-10-16T04:09:40;5.20;;;4.80;;
21202;SDS011;10759;51.982;9.232;2022-10-16T04:12:08;5.33;;;4.27;;
21202;SDS011;10759;51.982;9.232;2022-10-16T04:14:36;6.93;;;3.97;;
21202;SDS011;10759;51.982;9.232;2022-10-16T04:17:04;6.05;;;3.88;;
21202;SDS011;10759;51.982;9.232;2022-10-16T04:19:31;5.13;;;4.15;;
21202;SDS011;10759;51.982;9.232;2022-10-16T04:21:59;4.45;;;4.10;;
21202;SDS011;10759;51.982;9.232;2022-10-16T04:24:27;10.40;;;4.93;;
21202;SDS011;10759;51.982;9.232;2022-10-16T04:26:57;8.27;;;4.20;;
21202;SDS011;10759;51.982;9.232;2022-10-16T04:29:24;6.85;;;4.68;;
21202;SDS011;10759;51.982;9.232;2022-10-16T04:31:53;4.35;;;3.67;;
21202;SDS011;10759;51.982;9.232;2022-10-16T04:34:21;4.40;;;4.00;;
21202;SDS011;10759;51.982;9.232;2022-10-16T04:36:49;5.47;;;4.60;;
21202;SDS011;10759;51.982;9.232;2022-10-16T04:39:17;6.30;;;4.25;;
21202;SDS011;10759;51.982;9.232;2022-10-16T04:41:44;5.38;;;3.90;;
21202;SDS011;10759;51.982;9.232;2022-10-16T04:44:14;4.35;;;3.95;;
21202;SDS011;10759;51.982;9.232;2022-10-16T04:46:42;4.05;;;3.75;;
21202;SDS011;10759;51.982;9.232;2022-10-16T04:49:10;8.20;;;4.72;;
21202;SDS011;10759;51.982;9.232;2022-10-16T04:51:38;5.85;;;4.40;;
21202;SDS011;10759;51.982;9.232;2022-10-16T04:54:06;4.90;;;4.43;;
21202;SDS011;10759;51.982;9.232;2022-10-16T04:56:34;6.47;;;4.78;;
21202;SDS011;10759;51.982;9.232;2022-10-16T04:59:09;4.13;;;3.72;;
21202;SDS011;10759;51.982;9.232;2022-10-16T05:01:38;5.97;;;4.10;;
21202;SDS011;10759;51.982;9.232;2022-10-16T05:04:06;6.33;;;4.47;;
21202;SDS011;10759;51.982;9.232;2022-10-16T05:06:34;4.88;;;4.00;;
21202;SDS011;10759;51.982;9.232;2022-10-16T05:09:02;9.55;;;4.60;;
21202;SDS011;10759;51.982;9.232;2022-10-16T05:11:30;4.43;;;3.80;;
21202;SDS011;10759;51.982;9.232;2022-10-16T05:13:59;5.10;;;4.70;;
21202;SDS011;10759;51.982;9.232;2022-10-16T05:16:27;7.35;;;4.10;;
21202;SDS011;10759;51.982;9.232;2022-10-16T05:18:57;6.07;;;4.70;;
21202;SDS011;10759;51.982;9.232;2022-10-16T05:21:45;4.95;;;4.15;;
21202;SDS011;10759;51.982;9.232;2022-10-16T05:24:13;4.50;;;4.10;;
21202;SDS011;10759;51.982;9.232;2022-10-16T05:26:41;5.22;;;4.72;;
21202;SDS011;10759;51.982;9.232;2022-10-16T05:29:09;6.13;;;5.50;;
21202;SDS011;10759;51.982;9.232;2022-10-16T05:31:37;4.95;;;4.35;;
21202;SDS011;10759;51.982;9.232;2022-10-16T05:34:07;4.55;;;4.15;;
21202;SDS011;10759;51.982;9.232;2022-10-16T05:36:35;6.13;;;4.40;;
21202;SDS011;10759;51.982;9.232;2022-10-16T05:39:03;6.70;;;4.05;;
21202;SDS011;10759;51.982;9.232;2022-10-16T05:41:31;5.68;;;4.15;;
21202;SDS011;10759;51.982;9.232;2022-10-16T05:43:59;5.25;;;4.30;;
21202;SDS011;10759;51.982;9.232;2022-10-16T05:46:27;7.03;;;4.22;;
21202;SDS011;10759;51.982;9.232;2022-10-16T05:48:55;5.82;;;4.43;;
21202;SDS011;10759;51.982;9.232;2022-10-16T05:51:24;6.20;;;5.57;;
21202;SDS011;10759;51.982;9.232;2022-10-16T05:53:52;7.10;;;5.80;;
21202;SDS011;10759;51.982;9.232;2022-10-16T05:56:19;6.03;;;5.18;;
21202;SDS011;10759;51.982;9.232;2022-10-16T05:58:47;6.30;;;5.75;;
21202;SDS011;10759;51.982;9.232;2022-10-16T06:01:16;5.57;;;4.40;;
21202;SDS011;10759;51.982;9.232;2022-10-16T06:03:45;5.32;;;4.93;;
21202;SDS011;10759;51.982;9.232;2022-10-16T06:06:14;7.78;;;5.97;;
21202;SDS011;10759;51.982;9.232;2022-10-16T06:08:45;6.15;;;5.65;;
21202;SDS011;10759;51.982;9.232;2022-10-16T06:11:14;6.22;;;5.63;;
21202;SDS011;10759;51.982;9.232;2022-10-16T06:13:43;5.30;;;4.90;;
21202;SDS011;10759;51.982;9.232;2022-10-16T06:16:12;5.75;;;5.35;;
21202;SDS011;10759;51.982;9.232;2022-10-16T06:18:40;6.05;;;5.53;;
21202;SDS011;10759;51.982;9.232;2022-10-16T06:21:09;4.45;;;4.15;;
21202;SDS011;10759;51.982;9.232;2022-10-16T06:23:38;5.22;;;4.80;;
21202;SDS011;10759;51.982;9.232;2022-10-16T06:26:08;7.72;;;4.65;;
21202;SDS011;10759;51.982;9.232;2022-10-16T06:28:37;6.70;;;4.88;;
21202;SDS011;10759;51.982;9.232;2022-10-16T06:31:05;5.25;;;4.85;;
21202;SDS011;10759;51.982;9.232;2022-10-16T06:33:35;8.40;;;4.63;;
21202;SDS011;10759;51.982;9.232;2022-10-16T06:36:05;5.43;;;5.03;;
21202;SDS011;10759;51.982;9.232;2022-10-16T06:38:35;5.55;;;4.00;;
21202;SDS011;10759;51.982;9.232;2022-10-16T06:41:04;4.78;;;4.38;;
21202;SDS011;10759;51.982;9.232;2022-10-16T06:43:34;4.45;;;3.67;;
21202;SDS011;10759;51.982;9.232;2022-10-16T06:46:02;4.80;;;4.20;;
21202;SDS011;10759;51.982;9.232;2022-10-16T06:48:31;4.67;;;4.37;;
21202;SDS011;10759;51.982;9.232;2022-10-16T06:51:00;4.78;;;3.90;;
21202;SDS011;10759;51.982;9.232;2022-10-16T06:53:31;6.68;;;3.83;;
21202;SDS011;10759;51.982;9.232;2022-10-16T06:56:15;3.92;;;3.63;;
21202;SDS011;10759;51.982;9.232;2022-10-16T07:01:14;5.00;;;4.60;;
21202;SDS011;10759;51.982;9.232;2022-10-16T07:03:44;5.22;;;4.80;;
21202;SDS011;10759;51.982;9.232;2022-10-16T07:06:13;5.65;;;5.20;;
21202;SDS011;10759;51.982;9.232;2022-10-16T07:11:13;6.10;;;5.53;;
21202;SDS011;10759;51.982;9.232;2022-10-16T07:13:42;6.25;;;5.57;;
21202;SDS011;10759;51.982;9.232;2022-10-16T07:16:20;6.13;;;5.60;;
21202;SDS011;10759;51.982;9.232;2022-10-16T07:18:50;10.80;;;5.20;;
21202;SDS011;10759;51.982;9.232;2022-10-16T07:21:24;6.70;;;5.05;;
21202;SDS011;10759;51.982;9.232;2022-10-16T07:23:55;8.00;;;5.93;;
21202;SDS011;10759;51.982;9.232;2022-10-16T07:26:26;6.15;;;5.50;;
21202;SDS011;10759;51.982;9.232;2022-10-16T07:28:56;6.38;;;5.78;;
21202;SDS011;10759;51.982;9.232;2022-10-16T07:31:26;6.32;;;5.82;;
21202;SDS011;10759;51.982;9.232;2022-10-16T07:33:54;6.50;;;5.95;;
21202;SDS011;10759;51.982;9.232;2022-10-16T07:36:22;6.70;;;5.22;;
21202;SDS011;10759;51.982;9.232;2022-10-16T07:38:50;5.05;;;4.22;;
21202;SDS011;10759;51.982;9.232;2022-10-16T07:41:24;3.25;;;2.95;;
21202;SDS011;10759;51.982;9.232;2022-10-16T07:43:52;2.95;;;2.47;;
21202;SDS011;10759;51.982;9.232;2022-10-16T07:46:21;3.50;;;1.73;;
21202;SDS011;10759;51.982;9.232;2022-10-16T07:48:51;1.98;;;1.77;;
21202;SDS011;10759;51.982;9.232;2022-10-16T07:51:21;2.15;;;2.05;;
21202;SDS011;10759;51.982;9.232;2022-10-16T07:53:51;1.48;;;1.33;;
21202;SDS011;10759;51.982;9.232;2022-10-16T07:56:20;1.50;;;1.40;;
21202;SDS011;10759;51.982;9.232;2022-10-16T07:58:49;1.92;;;1.40;;
21202;SDS011;10759;51.982;9.232;2022-10-16T08:01:18;1.85;;;1.30;;
21202;SDS011;10759;51.982;9.232;2022-10-16T08:03:46;2.15;;;1.20;;
21202;SDS011;10759;51.982;9.232;2022-10-16T08:06:17;1.77;;;1.30;;
21202;SDS011;10759;51.982;9.232;2022-10-16T08:08:52;1.65;;;1.13;;
21202;SDS011;10759;51.982;9.232;2022-10-16T08:11:20;1.33;;;1.23;;
21202;SDS011;10759;51.982;9.232;2022-10-16T08:13:48;1.92;;;1.20;;
21202;SDS011;10759;51.982;9.232;2022-10-16T08:16:16;1.98;;;1.20;;
21202;SDS011;10759;51.982;9.232;2022-10-16T08:18:44;1.60;;;1.13;;
21202;SDS011;10759;51.982;9.232;2022-10-16T08:21:13;1.70;;;1.50;;
21202;SDS011;10759;51.982;9.232;2022-10-16T08:23:48;2.70;;;1.20;;
21202;SDS011;10759;51.982;9.232;2022-10-16T08:26:23;4.15;;;1.95;;
21202;SDS011;10759;51.982;9.232;2022-10-16T08:28:53;1.77;;;0.93;;
21202;SDS011;10759;51.982;9.232;2022-10-16T08:31:21;2.80;;;1.40;;
21202;SDS011;10759;51.982;9.232;2022-10-16T08:33:49;2.28;;;1.23;;
21202;SDS011;10759;51.982;9.232;2022-10-16T08:36:18;1.60;;;1.50;;
21202;SDS011;10759;51.982;9.232;2022-10-16T08:38:48;3.30;;;1.30;;
21202;SDS011;10759;51.982;9.232;2022-10-16T08:41:19;1.38;;;1.13;;
21202;SDS011;10759;51.982;9.232;2022-10-16T08:44:15;1.77;;;1.10;;
21202;SDS011;10759;51.982;9.232;2022-10-16T08:47:02;2.30;;;1.40;;
21202;SDS011;10759;51.982;9.232;2022-10-16T08:49:40;1.52;;;1.40;;
21202;SDS011;10759;51.982;9.232;2022-10-16T08:52:10;3.67;;;1.40;;
21202;SDS011;10759;51.982;9.232;2022-10-16T08:54:42;3.65;;;1.35;;
21202;SDS011;10759;51.982;9.232;2022-10-16T08:57:14;2.78;;;1.35;;
21202;SDS011;10759;51.982;9.232;2022-10-16T08:59:50;2.13;;;1.30;;
21202;SDS011;10759;51.982;9.232;2022-10-16T09:02:21;3.08;;;1.25;;
21202;SDS011;10759;51.982;9.232;2022-10-16T09:04:54;1.40;;;1.20;;
21202;SDS011;10759;51.982;9.232;2022-10-16T09:07:38;2.63;;;1.48;;
21202;SDS011;10759;51.982;9.232;2022-10-16T09:10:22;1.17;;;0.95;;
21202;SDS011;10759;51.982;9.232;2022-10-16T09:13:02;1.27;;;1.00;;
21202;SDS011;10759;51.982;9.232;2022-10-16T09:15:43;3.92;;;1.15;;
21202;SDS011;10759;51.982;9.232;2022-10-16T09:18:20;5.13;;;1.00;;
21202;SDS011;10759;51.982;9.232;2022-10-16T09:20:59;1.15;;;0.80;;
21202;SDS011;10759;51.982;9.232;2022-10-16T09:23:34;2.10;;;1.20;;
21202;SDS011;10759;51.982;9.232;2022-10-16T09:26:05;2.85;;;1.40;;
21202;SDS011;10759;51.982;9.232;2022-10-16T09:28:39;1.30;;;0.80;;
21202;SDS011;10759;51.982;9.232;2022-10-16T09:31:09;1.60;;;1.08;;
21202;SDS011;10759;51.982;9.232;2022-10-16T09:33:42;1.25;;;1.13;;
21202;SDS011;10759;51.982;9.232;2022-10-16T09:38:40;1.17;;;1.05;;
21202;SDS011;10759;51.982;9.232;2022-10-16T09:41:15;1.13;;;0.77;;
21202;SDS011;10759;51.982;9.232;2022-10-16T09:43:46;3.83;;;0.98;;
21202;SDS011;10759;51.982;9.232;2022-10-16T09:46:27;1.40;;;0.95;;
21202;SDS011;10759;51.982;9.232;2022-10-16T09:48:57;2.20;;;0.70;;
21202;SDS011;10759;51.982;9.232;2022-10-16T09:53:57;1.98;;;1.00;;
21202;SDS011;10759;51.982;9.232;2022-10-16T09:56:28;1.15;;;1.05;;
21202;SDS011;10759;51.982;9.232;2022-10-16T09:58:59;1.20;;;0.70;;
21202;SDS011;10759;51.982;9.232;2022-10-16T10:01:30;1.20;;;0.70;;
21202;SDS011;10759;51.982;9.232;2022-10-16T10:04:04;0.60;;;0.60;;
21202;SDS011;10759;51.982;9.232;2022-10-16T10:06:33;1.33;;;0.80;;
21202;SDS011;10759;51.982;9.232;2022-10-16T10:09:05;2.40;;;0.82;;
21202;SDS011;10759;51.982;9.232;2022-10-16T10:11:54;1.25;;;0.80;;
21202;SDS011;10759;51.982;9.232;2022-10-16T10:14:25;1.38;;;0.80;;
21202;SDS011;10759;51.982;9.232;2022-10-16T10:17:08;1.80;;;0.93;;
21202;SDS011;10759;51.982;9.232;2022-10-16T10:19:40;1.55;;;0.80;;
21202;SDS011;10759;51.982;9.232;2022-10-16T10:22:16;2.30;;;0.70;;
21202;SDS011;10759;51.982;9.232;2022-10-16T10:24:54;2.00;;;0.90;;
21202;SDS011;10759;51.982;9.232;2022-10-16T10:27:28;2.00;;;1.33;;
21202;SDS011;10759;51.982;9.232;2022-10-16T10:30:06;0.80;;;0.70;;
21202;SDS011;10759;51.982;9.232;2022-10-16T10:32:44;2.13;;;0.70;;
21202;SDS011;10759;51.982;9.232;2022-10-16T10:35:22;1.48;;;0.85;;
21202;SDS011;10759;51.982;9.232;2022-10-16T10:38:00;0.90;;;0.70;;
21202;SDS011;10759;51.982;9.232;2022-10-16T10:40:40;1.60;;;0.60;;
21202;SDS011;10759;51.982;9.232;2022-10-16T10:43:22;1.90;;;0.65;;
21202;SDS011;10759;51.982;9.232;2022-10-16T10:46:07;2.67;;;0.60;;
21202;SDS011;10759;51.982;9.232;2022-10-16T10:48:51;1.80;;;0.60;;
21202;SDS011;10759;51.982;9.232;2022-10-16T10:51:31;0.55;;;0.55;;
21202;SDS011;10759;51.982;9.232;2022-10-16T10:56:45;1.65;;;0.55;;
21202;SDS011;10759;51.982;9.232;2022-10-16T11:02:18;2.63;;;0.82;;
21202;SDS011;10759;51.982;9.232;2022-10-16T11:05:04;1.65;;;0.75;;
21202;SDS011;10759;51.982;9.232;2022-10-16T11:07:47;1.83;;;0.60;;
21202;SDS011;10759;51.982;9.232;2022-10-16T11:10:20;2.47;;;1.40;;
21202;SDS011;10759;51.982;9.232;2022-10-16T11:12:51;4.90;;;0.88;;
21202;SDS011;10759;51.982;9.232;2022-10-16T11:15:25;0.50;;;0.45;;
21202;SDS011;10759;51.982;9.232;2022-10-16T11:17:58;1.73;;;0.80;;
21202;SDS011;10759;51.982;9.232;2022-10-16T11:20:32;1.85;;;0.73;;
21202;SDS011;10759;51.982;9.232;2022-10-16T11:23:05;0.93;;;0.73;;
21202;SDS011;10759;51.982;9.232;2022-10-16T11:25:39;2.20;;;0.50;;
21202;SDS011;10759;51.982;9.232;2022-10-16T11:28:08;0.60;;;0.40;;
21202;SDS011;10759;51.982;9.232;2022-10-16T11:30:43;1.02;;;0.65;;
21202;SDS011;10759;51.982;9.232;2022-10-16T11:33:24;1.27;;;0.70;;
21202;SDS011;10759;51.982;9.232;2022-10-16T11:36:00;1.13;;;0.52;;
21202;SDS011;10759;51.982;9.232;2022-10-16T11:38:34;1.45;;;0.60;;
21202;SDS011;10759;51.982;9.232;2022-10-16T11:41:09;2.10;;;0.73;;
21202;SDS011;10759;51.982;9.232;2022-10-16T11:43:48;1.48;;;0.63;;
21202;SDS011;10759;51.982;9.232;2022-10-16T11:46:25;1.42;;;0.68;;
21202;SDS011;10759;51.982;9.232;2022-10-16T11:48:57;1.55;;;0.60;;
21202;SDS011;10759;51.982;9.232;2022-10-16T11:51:32;0.88;;;0.50;;
21202;SDS011;10759;51.982;9.232;2022-10-16T11:54:07;0.88;;;0.50;;
21202;SDS011;10759;51.982;9.232;2022-10-16T11:56:41;1.80;;;0.50;;
21202;SDS011;10759;51.982;9.232;2022-10-16T11:59:14;1.55;;;0.50;;
21202;SDS011;10759;51.982;9.232;2022-10-16T12:01:51;1.13;;;0.60;;
21202;SDS011;10759;51.982;9.232;2022-10-16T12:04:26;1.70;;;0.63;;
21202;SDS011;10759;51.982;9.232;2022-10-16T12:07:02;1.60;;;0.52;;
21202;SDS011;10759;51.982;9.232;2022-10-16T12:09:34;1.17;;;0.50;;
21202;SDS011;10759;51.982;9.232;2022-10-16T12:12:05;1.35;;;0.47;;
21202;SDS011;10759;51.982;9.232;2022-10-16T12:15:00;3.00;;;1.10;;
21202;SDS011;10759;51.982;9.232;2022-10-16T12:17:46;1.77;;;0.82;;
21202;SDS011;10759;51.982;9.232;2022-10-16T12:20:19;3.17;;;1.10;;
21202;SDS011;10759;51.982;9.232;2022-10-16T12:22:53;0.95;;;0.50;;
21202;SDS011;10759;51.982;9.232;2022-10-16T12:27:55;2.85;;;0.80;;
21202;SDS011;10759;51.982;9.232;2022-10-16T12:30:26;1.98;;;0.70;;
21202;SDS011;10759;51.982;9.232;2022-10-16T12:33:02;2.35;;;0.80;;
21202;SDS011;10759;51.982;9.232;2022-10-16T12:35:33;2.25;;;0.70;;
21202;SDS011;10759;51.982;9.232;2022-10-16T12:38:15;3.35;;;0.82;;
21202;SDS011;10759;51.982;9.232;2022-10-16T12:40:45;1.27;;;0.77;;
21202;SDS011;10759;51.982;9.232;2022-10-16T12:43:24;0.82;;;0.50;;
21202;SDS011;10759;51.982;9.232;2022-10-16T12:45:59;1.42;;;0.68;;
21202;SDS011;10759;51.982;9.232;2022-10-16T12:48:30;1.90;;;0.70;;
21202;SDS011;10759;51.982;9.232;2022-10-16T12:51:22;1.77;;;0.80;;
21202;SDS011;10759;51.982;9.232;2022-10-16T12:53:58;1.92;;;0.63;;
21202;SDS011;10759;51.982;9.232;2022-10-16T12:56:30;2.55;;;0.55;;
21202;SDS011;10759;51.982;9.232;2022-10-16T12:59:11;0.95;;;0.50;;
21202;SDS011;10759;51.982;9.232;2022-10-16T13:01:51;2.28;;;0.60;;
21202;SDS011;10759;51.982;9.232;2022-10-16T13:04:34;1.30;;;0.50;;
21202;SDS011;10759;51.982;9.232;2022-10-16T13:07:32;0.70;;;0.50;;
21202;SDS011;10759;51.982;9.232;2022-10-16T13:10:12;0.95;;;0.55;;
21202;SDS011;10759;51.982;9.232;2022-10-16T13:12:55;3.55;;;0.80;;
21202;SDS011;10759;51.982;9.232;2022-10-16T13:15:37;1.75;;;0.88;;
21202;SDS011;10759;51.982;9.232;2022-10-16T13:18:16;1.63;;;0.60;;
21202;SDS011;10759;51.982;9.232;2022-10-16T13:20:54;0.40;;;0.40;;
21202;SDS011;10759;51.982;9.232;2022-10-16T13:23:31;3.30;;;0.90;;
21202;SDS011;10759;51.982;9.232;2022-10-16T13:26:10;1.73;;;0.52;;
21202;SDS011;10759;51.982;9.232;2022-10-16T13:28:47;1.30;;;0.60;;
21202;SDS011;10759;51.982;9.232;2022-10-16T13:31:17;2.00;;;1.00;;
21202;SDS011;10759;51.982;9.232;2022-10-16T13:33:48;1.33;;;0.50;;
21202;SDS011;10759;51.982;9.232;2022-10-16T13:36:23;1.92;;;0.70;;
21202;SDS011;10759;51.982;9.232;2022-10-16T13:39:06;1.00;;;0.55;;
21202;SDS011;10759;51.982;9.232;2022-10-16T13:41:39;1.40;;;0.60;;
21202;SDS011;10759;51.982;9.232;2022-10-16T13:44:14;1.17;;;0.70;;
21202;SDS011;10759;51.982;9.232;2022-10-16T13:46:45;0.98;;;0.60;;
21202;SDS011;10759;51.982;9.232;2022-10-16T13:49:14;2.47;;;0.70;;
21202;SDS011;10759;51.982;9.232;2022-10-16T13:51:55;2.08;;;0.60;;
21202;SDS011;10759;51.982;9.232;2022-10-16T13:54:23;0.98;;;0.77;;
21202;SDS011;10759;51.982;9.232;2022-10-16T13:56:52;1.35;;;0.70;;
21202;SDS011;10759;51.982;9.232;2022-10-16T13:59:34;1.52;;;0.60;;
21202;SDS011;10759;51.982;9.232;2022-10-16T14:02:05;1.00;;;0.65;;
21202;SDS011;10759;51.982;9.232;2022-10-16T14:04:43;1.60;;;0.57;;
21202;SDS011;10759;51.982;9.232;2022-10-16T14:07:14;1.92;;;0.77;;
21202;SDS011;10759;51.982;9.232;2022-10-16T14:09:48;0.90;;;0.77;;
21202;SDS011;10759;51.982;9.232;2022-10-16T14:14:50;1.38;;;0.50;;
21202;SDS011;10759;51.982;9.232;2022-10-16T14:17:21;2.13;;;0.57;;
21202;SDS011;10759;51.982;9.232;2022-10-16T14:19:52;1.38;;;0.60;;
21202;SDS011;10759;51.982;9.232;2022-10-16T14:22:30;2.22;;;0.90;;
21202;SDS011;10759;51.982;9.232;2022-10-16T14:25:01;1.13;;;0.60;;
21202;SDS011;10759;51.982;9.232;2022-10-16T14:27:56;1.77;;;0.80;;
21202;SDS011;10759;51.982;9.232;2022-10-16T14:30:25;1.38;;;0.82;;
21202;SDS011;10759;51.982;9.232;2022-10-16T14:32:54;1.02;;;0.80;;
21202;SDS011;10759;51.982;9.232;2022-10-16T14:35:24;0.70;;;0.70;;
21202;SDS011;10759;51.982;9.232;2022-10-16T14:37:56;1.55;;;1.02;;
21202;SDS011;10759;51.982;9.232;2022-10-16T14:40:26;2.67;;;0.60;;
21202;SDS011;10759;51.982;9.232;2022-10-16T14:42:56;3.05;;;1.20;;
21202;SDS011;10759;51.982;9.232;2022-10-16T14:45:26;1.30;;;0.60;;
21202;SDS011;10759;51.982;9.232;2022-10-16T14:47:57;2.78;;;0.70;;
21202;SDS011;10759;51.982;9.232;2022-10-16T14:50:27;1.27;;;0.70;;
21202;SDS011;10759;51.982;9.232;2022-10-16T14:52:56;3.13;;;0.95;;
21202;SDS011;10759;51.982;9.232;2022-10-16T14:55:25;1.33;;;0.60;;
21202;SDS011;10759;51.982;9.232;2022-10-16T14:57:53;1.88;;;0.65;;
21202;SDS011;10759;51.982;9.232;2022-10-16T15:00:26;0.50;;;0.50;;
21202;SDS011;10759;51.982;9.232;2022-10-16T15:02:54;0.85;;;0.65;;
21202;SDS011;10759;51.982;9.232;2022-10-16T15:05:22;0.75;;;0.45;;
21202;SDS011;10759;51.982;9.232;2022-10-16T15:07:52;2.70;;;0.60;;
21202;SDS011;10759;51.982;9.232;2022-10-16T15:10:23;2.13;;;0.63;;
21202;SDS011;10759;51.982;9.232;2022-10-16T15:12:53;2.25;;;0.90;;
21202;SDS011;10759;51.982;9.232;2022-10-16T15:15:25;0.82;;;0.50;;
21202;SDS011;10759;51.982;9.232;2022-10-16T15:17:58;1.85;;;0.85;;
21202;SDS011;10759;51.982;9.232;2022-10-16T15:20:27;3.20;;;1.20;;
21202;SDS011;10759;51.982;9.232;2022-10-16T15:22:58;1.73;;;0.98;;
21202;SDS011;10759;51.982;9.232;2022-10-16T15:25:32;1.13;;;0.90;;
21202;SDS011;10759;51.982;9.232;2022-10-16T15:28:03;2.75;;;1.40;;
21202;SDS011;10759;51.982;9.232;2022-10-16T15:30:31;1.50;;;1.40;;
21202;SDS011;10759;51.982;9.232;2022-10-16T15:33:00;3.58;;;3.17;;
21202;SDS011;10759;51.982;9.232;2022-10-16T15:35:28;6.55;;;3.15;;
21202;SDS011;10759;51.982;9.232;2022-10-16T15:37:56;3.42;;;3.13;;
21202;SDS011;10759;51.982;9.232;2022-10-16T15:40:24;4.15;;;2.92;;
21202;SDS011;10759;51.982;9.232;2022-10-16T15:42:54;4.68;;;4.18;;